createdAt,value
2022-09-16T00:01:53.843Z,98849.56
2022-09-16T00:04:27.426Z,98845.44
2022-09-16T00:07:01.010Z,98843.00
2022-09-16T00:09:36.017Z,98842.28
2022-09-16T00:12:09.687Z,98849.75
2022-09-16T00:14:43.087Z,98857.75
2022-09-16T00:17:16.610Z,98861.44
2022-09-16T00:19:50.868Z,98858.16
2022-09-16T00:22:24.472Z,98869.03
2022-09-16T00:24:59.417Z,98867.31
2022-09-16T00:27:33.021Z,98868.19
2022-09-16T00:30:06.945Z,98858.00
2022-09-16T00:32:40.433Z,98866.56
2022-09-16T00:35:14.051Z,98865.47
2022-09-16T00:37:47.546Z,98866.91
2022-09-16T00:40:23.324Z,98866.06
2022-09-16T00:42:56.932Z,98865.94
2022-09-16T00:45:31.943Z,98868.75
2022-09-16T00:48:09.727Z,98857.28
2022-09-16T00:50:48.473Z,98861.06
2022-09-16T00:53:24.727Z,98851.59
2022-09-16T00:56:02.272Z,98853.38
2022-09-16T00:58:44.153Z,98867.81
2022-09-16T01:01:17.742Z,98867.31
2022-09-16T01:03:55.683Z,98872.06
2022-09-16T01:06:30.507Z,98877.69
2022-09-16T01:09:04.445Z,98872.56
2022-09-16T01:11:39.327Z,98876.50
2022-09-16T01:14:31.302Z,98873.69
2022-09-16T01:17:11.814Z,98877.34
2022-09-16T01:20:04.512Z,98884.31
2022-09-16T01:22:56.501Z,98875.63
2022-09-16T01:25:46.687Z,98878.44
2022-09-16T01:29:00.864Z,98883.09
2022-09-16T01:31:40.837Z,98886.25
2022-09-16T01:34:20.876Z,98885.66
2022-09-16T01:37:05.937Z,98886.75
2022-09-16T01:39:46.401Z,98882.50
2022-09-16T01:42:28.513Z,98886.97
2022-09-16T01:45:08.293Z,98887.88
2022-09-16T01:47:52.042Z,98886.13
2022-09-16T01:50:31.319Z,98881.59
2022-09-16T01:53:14.009Z,98886.88
2022-09-16T01:55:52.658Z,98886.75
2022-09-16T01:58:31.543Z,98895.66
2022-09-16T02:01:09.305Z,98898.34
2022-09-16T02:03:49.457Z,98903.47
2022-09-16T02:06:27.047Z,98895.19
2022-09-16T02:09:03.391Z,98903.94
2022-09-16T02:11:39.732Z,98896.72
2022-09-16T02:14:19.485Z,98897.72
2022-09-16T02:16:57.894Z,98895.19
2022-09-16T02:19:38.196Z,98894.41
2022-09-16T02:22:16.950Z,98886.75
2022-09-16T02:24:51.332Z,98900.38
2022-09-16T02:27:24.841Z,98903.31
2022-09-16T02:30:03.646Z,98900.00
2022-09-16T02:32:41.507Z,98903.81
2022-09-16T02:35:19.468Z,98900.38
2022-09-16T02:37:57.247Z,98895.25
2022-09-16T02:40:37.186Z,98893.56
2022-09-16T02:43:10.668Z,98891.00
2022-09-16T02:45:50.113Z,98895.41
2022-09-16T02:48:36.836Z,98895.41
2022-09-16T02:51:23.367Z,98891.13
2022-09-16T02:54:02.147Z,98890.66
2022-09-16T02:56:37.680Z,98893.44
2022-09-16T02:59:14.228Z,98898.16
2022-09-16T03:01:48.469Z,98899.41
2022-09-16T03:04:24.333Z,98899.75
2022-09-16T03:06:59.319Z,98902.81
2022-09-16T03:09:34.364Z,98901.19
2022-09-16T03:12:21.126Z,98897.78
2022-09-16T03:15:20.290Z,98903.16
2022-09-16T03:18:24.044Z,98908.63
2022-09-16T03:21:04.478Z,98915.47
2022-09-16T03:23:53.512Z,98916.53
2022-09-16T03:26:33.980Z,98912.38
2022-09-16T03:29:15.963Z,98908.13
2022-09-16T03:31:59.247Z,98907.41
2022-09-16T03:34:36.993Z,98911.16
2022-09-16T03:37:18.736Z,98914.91
2022-09-16T03:39:56.984Z,98921.25
2022-09-16T03:42:30.492Z,98917.81
2022-09-16T03:45:03.991Z,98923.28
2022-09-16T03:47:37.628Z,98928.66
2022-09-16T03:50:11.482Z,98924.16
2022-09-16T03:52:44.949Z,98925.84
2022-09-16T03:55:19.833Z,98924.66
2022-09-16T03:57:54.722Z,98916.41
2022-09-16T04:00:29.154Z,98918.84
2022-09-16T04:03:02.722Z,98928.81
2022-09-16T04:05:36.175Z,98922.72
2022-09-16T04:08:09.575Z,98933.66
2022-09-16T04:10:44.400Z,98934.88
2022-09-16T04:13:17.750Z,98937.06
2022-09-16T04:15:51.355Z,98932.06
2022-09-16T04:18:25.138Z,98936.66
2022-09-16T04:20:58.590Z,98941.31
2022-09-16T04:23:32.298Z,98937.75
2022-09-16T04:26:07.598Z,98929.09
2022-09-16T04:28:41.056Z,98928.22
2022-09-16T04:31:16.734Z,98926.44
2022-09-16T04:33:50.840Z,98935.91
2022-09-16T04:36:24.718Z,98920.47
2022-09-16T04:38:58.387Z,98917.56
2022-09-16T04:41:33.306Z,98928.06
2022-09-16T04:44:07.118Z,98933.88
2022-09-16T04:46:40.665Z,98919.53
2022-09-16T04:49:14.234Z,98927.47
2022-09-16T04:51:47.711Z,98931.63
2022-09-16T04:54:21.191Z,98930.50
2022-09-16T04:56:56.079Z,98936.47
2022-09-16T04:59:31.933Z,98930.16
2022-09-16T05:02:05.370Z,98935.41
2022-09-16T05:04:38.832Z,98925.53
2022-09-16T05:07:12.363Z,98931.88
2022-09-16T05:09:46.342Z,98944.53
2022-09-16T05:12:21.138Z,98947.47
2022-09-16T05:14:54.560Z,98946.81
2022-09-16T05:17:49.771Z,98946.09
2022-09-16T05:20:23.925Z,98940.75
2022-09-16T05:22:57.315Z,98945.84
2022-09-16T05:25:30.734Z,98945.41
2022-09-16T05:28:05.611Z,98942.25
2022-09-16T05:30:39.038Z,98942.50
2022-09-16T05:33:12.499Z,98956.03
2022-09-16T05:35:45.962Z,98948.97
2022-09-16T05:38:19.436Z,98947.19
2022-09-16T05:40:52.824Z,98939.97
2022-09-16T05:43:28.002Z,98943.31
2022-09-16T05:46:02.006Z,98949.41
2022-09-16T05:48:36.611Z,98943.31
2022-09-16T05:51:11.242Z,98940.72
2022-09-16T05:53:45.720Z,98935.00
2022-09-16T05:56:20.612Z,98939.88
2022-09-16T05:58:56.584Z,98934.00
2022-09-16T06:01:34.954Z,98935.56
2022-09-16T06:04:14.301Z,98939.56
2022-09-16T06:06:48.430Z,98938.31
2022-09-16T06:09:24.597Z,98930.75
2022-09-16T06:12:01.959Z,98930.09
2022-09-16T06:14:37.801Z,98935.81
2022-09-16T06:17:11.445Z,98939.59
2022-09-16T06:19:44.653Z,98932.56
2022-09-16T06:22:18.253Z,98936.91
2022-09-16T06:24:52.809Z,98932.66
2022-09-16T06:27:26.379Z,98933.44
2022-09-16T06:30:01.296Z,98929.69
2022-09-16T06:32:34.973Z,98935.00
2022-09-16T06:35:08.746Z,98924.78
2022-09-16T06:37:42.208Z,98929.75
2022-09-16T06:40:16.000Z,98931.66
2022-09-16T06:42:49.753Z,98924.31
2022-09-16T06:45:25.064Z,98933.19
2022-09-16T06:48:01.706Z,98935.56
2022-09-16T06:50:35.117Z,98935.75
2022-09-16T06:53:08.567Z,98933.66
2022-09-16T06:55:42.018Z,98934.84
2022-09-16T06:58:15.506Z,98941.66
2022-09-16T07:00:51.217Z,98937.28
2022-09-16T07:03:24.931Z,98941.28
2022-09-16T07:06:00.421Z,98956.00
2022-09-16T07:08:35.094Z,98949.91
2022-09-16T07:11:10.315Z,98955.00
2022-09-16T07:13:45.233Z,98953.31
2022-09-16T07:16:22.355Z,98962.38
2022-09-16T07:19:00.739Z,98966.22
2022-09-16T07:21:34.727Z,98958.09
2022-09-16T07:24:08.307Z,98969.56
2022-09-16T07:26:42.142Z,98970.22
2022-09-16T07:29:17.481Z,98977.88
2022-09-16T07:31:52.347Z,98964.88
2022-09-16T07:34:29.023Z,98970.19
2022-09-16T07:37:02.522Z,98968.34
2022-09-16T07:39:35.681Z,98964.78
2022-09-16T07:42:09.203Z,98968.69
2022-09-16T07:44:42.363Z,98952.13
2022-09-16T07:47:21.959Z,98958.03
2022-09-16T07:49:56.299Z,98955.88
2022-09-16T07:52:30.621Z,98974.59
2022-09-16T07:55:04.208Z,98969.97
2022-09-16T07:57:37.732Z,98965.28
2022-09-16T08:00:13.079Z,98967.13
2022-09-16T08:02:48.062Z,98970.25
2022-09-16T08:05:21.551Z,98963.44
2022-09-16T08:07:54.690Z,98969.72
2022-09-16T08:10:32.216Z,98965.25
2022-09-16T08:13:06.684Z,98961.50
2022-09-16T08:15:40.140Z,98964.38
2022-09-16T08:18:15.147Z,98955.25
2022-09-16T08:20:48.591Z,98963.44
2022-09-16T08:23:22.037Z,98959.47
2022-09-16T08:25:59.190Z,98949.22
2022-09-16T08:28:45.032Z,98956.78
2022-09-16T08:31:26.721Z,98957.16
2022-09-16T08:34:01.680Z,98961.78
2022-09-16T08:36:35.286Z,98958.16
2022-09-16T08:39:08.908Z,98959.75
2022-09-16T08:42:34.507Z,98954.38
2022-09-16T08:45:19.649Z,98955.53
2022-09-16T08:48:11.478Z,98962.91
2022-09-16T08:50:49.660Z,98960.38
2022-09-16T08:53:35.811Z,98960.22
2022-09-16T08:56:14.870Z,98966.41
2022-09-16T08:58:51.412Z,98963.22
2022-09-16T09:01:33.682Z,98963.13
2022-09-16T09:04:07.263Z,98969.84
2022-09-16T09:07:00.072Z,98957.97
2022-09-16T09:09:50.366Z,98966.78
2022-09-16T09:12:38.303Z,98973.28
2022-09-16T09:15:30.942Z,98955.16
2022-09-16T09:18:21.693Z,98957.44
2022-09-16T09:21:05.331Z,98960.22
2022-09-16T09:24:07.000Z,98959.31
2022-09-16T09:26:49.719Z,98962.28
2022-09-16T09:29:44.209Z,98953.06
2022-09-16T09:32:26.507Z,98949.59
2022-09-16T09:35:21.630Z,98962.06
2022-09-16T09:38:30.914Z,98953.00
2022-09-16T09:41:11.983Z,98963.47
2022-09-16T09:43:54.078Z,98962.13
2022-09-16T09:46:34.120Z,98967.38
2022-09-16T09:49:13.409Z,98976.53
2022-09-16T09:51:52.575Z,98986.06
2022-09-16T09:54:29.868Z,98988.25
2022-09-16T09:57:13.522Z,98978.63
2022-09-16T09:59:49.427Z,98974.69
2022-09-16T10:02:24.197Z,98971.31
2022-09-16T10:04:57.975Z,98972.97
2022-09-16T10:07:31.888Z,98972.56
2022-09-16T10:10:16.853Z,98971.13
2022-09-16T10:12:52.098Z,98966.78
2022-09-16T10:15:29.463Z,98968.38
2022-09-16T10:18:04.354Z,98967.94
2022-09-16T10:20:40.993Z,98965.88
2022-09-16T10:23:16.386Z,98958.78
2022-09-16T10:25:50.062Z,98967.09
2022-09-16T10:28:31.126Z,98962.16
2022-09-16T10:31:04.829Z,98964.84
2022-09-16T10:33:45.634Z,98963.69
2022-09-16T10:36:21.937Z,98961.78
2022-09-16T10:39:04.930Z,98969.09
2022-09-16T10:41:46.094Z,98968.59
2022-09-16T10:44:25.778Z,98967.09
2022-09-16T10:47:01.965Z,98969.38
2022-09-16T10:49:41.571Z,98968.28
2022-09-16T10:52:18.621Z,98973.13
2022-09-16T10:54:52.362Z,98965.72
2022-09-16T10:57:29.131Z,98963.06
2022-09-16T11:00:13.924Z,98959.50
2022-09-16T11:03:24.697Z,98962.41
2022-09-16T11:06:15.215Z,98955.22
2022-09-16T11:09:03.831Z,98951.84
2022-09-16T11:12:03.757Z,98966.09
2022-09-16T11:14:47.666Z,98963.66
2022-09-16T11:17:36.725Z,98952.13
2022-09-16T11:20:33.910Z,98952.88
2022-09-16T11:23:15.229Z,98960.19
2022-09-16T11:25:55.246Z,98957.72
2022-09-16T11:28:51.757Z,98944.38
2022-09-16T11:31:36.905Z,98943.00
2022-09-16T11:34:26.121Z,98941.81
2022-09-16T11:37:10.045Z,98934.69
2022-09-16T11:40:08.850Z,98941.63
2022-09-16T11:42:44.535Z,98937.16
2022-09-16T11:45:31.250Z,98944.50
2022-09-16T11:48:32.992Z,98942.59
2022-09-16T11:51:21.542Z,98938.97
2022-09-16T11:57:05.981Z,98939.50
2022-09-16T11:59:43.308Z,98937.78
2022-09-16T12:02:21.404Z,98945.75
2022-09-16T12:05:01.584Z,98950.75
2022-09-16T12:07:42.414Z,98943.59
2022-09-16T12:10:21.759Z,98951.56
2022-09-16T12:13:00.429Z,98937.00
2022-09-16T12:15:41.937Z,98939.34
2022-09-16T12:18:20.561Z,98934.84
2022-09-16T12:20:59.459Z,98932.59
2022-09-16T12:23:40.499Z,98933.50
2022-09-16T12:26:19.246Z,98924.91
2022-09-16T12:28:58.663Z,98916.97
2022-09-16T12:31:37.199Z,98919.47
2022-09-16T12:34:13.824Z,98918.41
2022-09-16T12:36:51.587Z,98904.50
2022-09-16T12:39:26.563Z,98907.97
2022-09-16T12:42:29.403Z,98910.22
2022-09-16T12:45:17.036Z,98902.31
2022-09-16T12:48:04.021Z,98910.06
2022-09-16T12:50:54.237Z,98902.72
2022-09-16T12:54:00.723Z,98902.78
2022-09-16T12:57:04.423Z,98914.06
2022-09-16T13:00:10.547Z,98916.78
2022-09-16T13:02:48.983Z,98920.63
2022-09-16T13:05:30.968Z,98909.81
2022-09-16T13:08:20.264Z,98914.28
2022-09-16T13:14:00.230Z,98910.06
2022-09-16T13:16:36.405Z,98913.66
2022-09-16T13:19:32.379Z,98905.03
2022-09-16T13:22:22.790Z,98906.06
2022-09-16T13:25:06.826Z,98897.41
2022-09-16T13:27:42.418Z,98896.03
2022-09-16T13:30:29.151Z,98890.59
2022-09-16T13:33:24.005Z,98894.13
2022-09-16T13:36:33.374Z,98899.06
2022-09-16T13:39:12.210Z,98900.19
2022-09-16T13:41:52.592Z,98886.81
2022-09-16T13:44:42.449Z,98906.25
2022-09-16T13:47:36.293Z,98909.47
2022-09-16T13:50:16.146Z,98894.16
2022-09-16T13:52:50.603Z,98902.25
2022-09-16T13:55:29.170Z,98896.94
2022-09-16T13:58:07.498Z,98893.09
2022-09-16T14:00:49.079Z,98891.47
2022-09-16T14:03:47.541Z,98899.63
2022-09-16T14:06:46.973Z,98898.78
2022-09-16T14:09:34.118Z,98906.91
2022-09-16T14:12:14.867Z,98903.94
2022-09-16T14:14:49.179Z,98907.31
2022-09-16T14:17:27.752Z,98903.84
2022-09-16T14:20:03.368Z,98902.34
2022-09-16T14:22:36.828Z,98894.41
2022-09-16T14:25:29.430Z,98891.22
2022-09-16T14:28:11.835Z,98887.56
2022-09-16T14:30:54.255Z,98893.19
2022-09-16T14:33:32.501Z,98896.81
2022-09-16T14:36:20.570Z,98899.97
2022-09-16T14:38:57.909Z,98892.63
2022-09-16T14:41:37.425Z,98901.88
2022-09-16T14:44:18.695Z,98900.06
2022-09-16T14:47:04.809Z,98898.88
2022-09-16T14:49:44.181Z,98901.03
2022-09-16T14:52:22.898Z,98896.41
2022-09-16T14:54:58.504Z,98898.16
2022-09-16T14:57:33.703Z,98898.34
2022-09-16T15:00:11.681Z,98899.25
2022-09-16T15:02:48.993Z,98895.28
2022-09-16T15:05:26.430Z,98892.06
2022-09-16T15:08:14.128Z,98893.03
2022-09-16T15:10:53.265Z,98887.50
2022-09-16T15:13:29.699Z,98890.75
2022-09-16T15:16:11.571Z,98888.75
2022-09-16T15:18:53.797Z,98875.41
2022-09-16T15:21:29.895Z,98881.94
2022-09-16T15:24:07.368Z,98876.16
2022-09-16T15:26:43.326Z,98884.00
2022-09-16T15:29:32.068Z,98881.75
2022-09-16T15:32:18.260Z,98878.25
2022-09-16T15:35:11.754Z,98872.59
2022-09-16T15:37:45.945Z,98862.84
2022-09-16T15:40:31.982Z,98869.66
2022-09-16T15:43:15.993Z,98856.91
2022-09-16T15:46:00.311Z,98863.63
2022-09-16T15:48:36.399Z,98869.84
2022-09-16T15:51:20.666Z,98870.56
2022-09-16T15:53:58.445Z,98863.22
2022-09-16T15:56:36.263Z,98859.41
2022-09-16T15:59:24.526Z,98860.69
2022-09-16T16:02:00.904Z,98859.56
2022-09-16T16:04:35.873Z,98873.34
2022-09-16T16:07:13.050Z,98870.19
2022-09-16T16:09:46.502Z,98866.94
2022-09-16T16:12:21.884Z,98875.44
2022-09-16T16:14:55.346Z,98868.81
2022-09-16T16:17:28.738Z,98873.78
2022-09-16T16:20:03.206Z,98868.97
2022-09-16T16:22:36.728Z,98866.81
2022-09-16T16:25:10.870Z,98868.22
2022-09-16T16:27:45.699Z,98875.03
2022-09-16T16:30:19.764Z,98867.53
2022-09-16T16:32:53.225Z,98866.97
2022-09-16T16:35:26.651Z,98870.91
2022-09-16T16:38:00.069Z,98873.19
2022-09-16T16:40:33.537Z,98863.75
2022-09-16T16:43:08.545Z,98864.47
2022-09-16T16:45:41.982Z,98865.88
2022-09-16T16:48:15.520Z,98869.13
2022-09-16T16:50:59.419Z,98864.16
2022-09-16T16:53:42.384Z,98872.06
2022-09-16T16:56:20.209Z,98867.22
2022-09-16T16:59:03.490Z,98871.31
2022-09-16T17:01:40.240Z,98872.56
2022-09-16T17:04:32.203Z,98880.91
2022-09-16T17:07:25.154Z,98879.88
2022-09-16T17:09:59.928Z,98888.38
2022-09-16T17:12:33.505Z,98878.84
2022-09-16T17:15:09.546Z,98882.81
2022-09-16T17:17:43.102Z,98880.66
2022-09-16T17:20:16.563Z,98885.41
2022-09-16T17:22:50.027Z,98884.84
2022-09-16T17:25:23.495Z,98890.75
2022-09-16T17:27:57.096Z,98895.66
2022-09-16T17:30:31.849Z,98894.16
2022-09-16T17:33:05.438Z,98890.81
2022-09-16T17:35:42.865Z,98900.16
2022-09-16T17:38:16.267Z,98898.56
2022-09-16T17:40:49.653Z,98887.09
2022-09-16T17:43:23.027Z,98890.84
2022-09-16T17:45:57.938Z,98896.34
2022-09-16T17:48:32.092Z,98900.03
2022-09-16T17:51:05.853Z,98904.41
2022-09-16T17:53:39.485Z,98890.81
2022-09-16T17:56:14.566Z,98883.28
2022-09-16T17:58:49.503Z,98891.94
2022-09-16T18:01:27.068Z,98887.41
2022-09-16T18:04:01.839Z,98878.78
2022-09-16T18:06:40.849Z,98882.56
2022-09-16T18:09:14.476Z,98889.13
2022-09-16T18:11:47.971Z,98883.16
2022-09-16T18:14:23.577Z,98879.91
2022-09-16T18:17:00.080Z,98889.59
2022-09-16T18:19:33.852Z,98892.81
2022-09-16T18:22:07.297Z,98895.09
2022-09-16T18:24:40.888Z,98898.38
2022-09-16T18:27:14.579Z,98891.81
2022-09-16T18:29:48.574Z,98896.00
2022-09-16T18:32:23.551Z,98893.94
2022-09-16T18:34:57.556Z,98895.16
2022-09-16T18:37:31.175Z,98901.91
2022-09-16T18:40:05.245Z,98893.09
2022-09-16T18:42:39.175Z,98897.03
2022-09-16T18:45:12.747Z,98893.75
2022-09-16T18:47:47.782Z,98897.53
2022-09-16T18:50:21.502Z,98900.59
2022-09-16T18:52:54.966Z,98901.53
2022-09-16T18:55:29.100Z,98902.69
2022-09-16T18:58:02.606Z,98899.63
2022-09-16T19:00:36.427Z,98903.44
2022-09-16T19:03:11.361Z,98901.13
2022-09-16T19:05:45.070Z,98899.66
2022-09-16T19:08:18.905Z,98900.16
2022-09-16T19:10:52.655Z,98900.28
2022-09-16T19:13:26.878Z,98901.38
2022-09-16T19:16:01.159Z,98904.31
2022-09-16T19:18:40.327Z,98908.19
2022-09-16T19:21:17.251Z,98905.88
2022-09-16T19:23:55.572Z,98906.13
2022-09-16T19:26:32.015Z,98910.84
2022-09-16T19:29:07.040Z,98902.22
2022-09-16T19:31:42.824Z,98906.84
2022-09-16T19:34:18.303Z,98900.00
2022-09-16T19:36:51.894Z,98898.44
2022-09-16T19:39:27.170Z,98900.25
2022-09-16T19:42:03.706Z,98900.59
2022-09-16T19:44:37.195Z,98883.91
2022-09-16T19:47:10.722Z,98894.03
2022-09-16T19:49:45.520Z,98895.88
2022-09-16T19:52:18.921Z,98896.13
2022-09-16T19:54:52.296Z,98904.03
2022-09-16T19:57:25.740Z,98900.59
2022-09-16T19:59:59.207Z,98890.88
2022-09-16T20:02:32.896Z,98899.88
2022-09-16T20:05:09.191Z,98900.00
2022-09-16T20:07:42.680Z,98895.59
2022-09-16T20:10:16.389Z,98899.63
2022-09-16T20:12:49.501Z,98905.13
2022-09-16T20:15:22.938Z,98899.16
2022-09-16T20:17:56.986Z,98903.88
2022-09-16T20:20:32.191Z,98906.78
2022-09-16T20:23:05.652Z,98906.06
2022-09-16T20:25:39.082Z,98907.88
2022-09-16T20:28:12.479Z,98901.06
2022-09-16T20:30:48.334Z,98903.84
2022-09-16T20:33:22.546Z,98908.59
2022-09-16T20:36:03.608Z,98909.78
2022-09-16T20:38:39.177Z,98916.25
2022-09-16T20:41:16.318Z,98922.06
2022-09-16T20:43:50.979Z,98917.91
2022-09-16T20:46:26.909Z,98919.97
2022-09-16T20:49:03.474Z,98918.41
2022-09-16T20:51:39.697Z,98912.28
2022-09-16T20:54:15.572Z,98915.19
2022-09-16T20:56:50.494Z,98916.19
2022-09-16T20:59:24.703Z,98911.78
2022-09-16T21:02:04.382Z,98918.97
2022-09-16T21:04:38.825Z,98916.41
2022-09-16T21:07:14.542Z,98925.41
2022-09-16T21:09:49.034Z,98918.22
2022-09-16T21:12:23.311Z,98916.53
2022-09-16T21:14:58.309Z,98930.03
2022-09-16T21:17:32.526Z,98925.63
2022-09-16T21:20:07.698Z,98922.22
2022-09-16T21:22:45.075Z,98924.28
2022-09-16T21:25:19.408Z,98919.16
2022-09-16T21:27:53.626Z,98912.09
2022-09-16T21:30:28.589Z,98925.59
2022-09-16T21:33:04.452Z,98916.72
2022-09-16T21:35:38.692Z,98913.16
2022-09-16T21:38:17.233Z,98913.16
2022-09-16T21:40:56.983Z,98913.16
2022-09-16T21:43:32.732Z,98920.22
2022-09-16T21:46:07.622Z,98917.66
2022-09-16T21:48:42.868Z,98921.31
2022-09-16T21:51:18.940Z,98922.28
2022-09-16T21:53:54.659Z,98927.63
2022-09-16T21:56:28.952Z,98921.56
2022-09-16T21:59:03.253Z,98930.53
2022-09-16T22:01:38.646Z,98924.47
2022-09-16T22:04:14.377Z,98924.56
2022-09-16T22:06:49.087Z,98920.28
2022-09-16T22:09:24.949Z,98920.53
2022-09-16T22:11:59.588Z,98926.09
2022-09-16T22:14:33.917Z,98917.41
2022-09-16T22:17:08.347Z,98926.50
2022-09-16T22:19:42.616Z,98928.44
2022-09-16T22:22:16.729Z,98923.31
2022-09-16T22:24:52.413Z,98932.53
2022-09-16T22:27:26.391Z,98928.38
2022-09-16T22:30:00.366Z,98922.31
2022-09-16T22:32:36.770Z,98923.38
2022-09-16T22:35:14.288Z,98919.97
2022-09-16T22:37:50.249Z,98924.53
2022-09-16T22:40:25.840Z,98924.66
2022-09-16T22:42:59.942Z,98922.09
2022-09-16T22:45:34.019Z,98925.88
2022-09-16T22:48:07.819Z,98918.91
2022-09-16T22:50:41.351Z,98905.59
2022-09-16T22:53:15.373Z,98910.88
2022-09-16T22:55:50.710Z,98907.59
2022-09-16T22:58:25.153Z,98909.53
2022-09-16T23:01:03.854Z,98909.53
2022-09-16T23:03:37.496Z,98906.09
2022-09-16T23:06:12.806Z,98905.97
2022-09-16T23:08:46.927Z,98900.72
2022-09-16T23:11:24.583Z,98904.41
2022-09-16T23:13:59.117Z,98901.72
2022-09-16T23:16:34.080Z,98892.81
2022-09-16T23:19:09.649Z,98895.59
2022-09-16T23:21:43.355Z,98899.28
2022-09-16T23:24:17.317Z,98898.59
2022-09-16T23:26:52.130Z,98888.91
2022-09-16T23:29:25.530Z,98898.09
2022-09-16T23:32:02.696Z,98900.25
2022-09-16T23:34:36.063Z,98901.47
2022-09-16T23:37:09.489Z,98905.19
2022-09-16T23:39:42.887Z,98901.00
2022-09-16T23:42:17.698Z,98896.88
2022-09-16T23:44:51.118Z,98899.88
2022-09-16T23:47:24.698Z,98895.69
2022-09-16T23:49:58.197Z,98896.00
2022-09-16T23:52:31.575Z,98889.19
2022-09-16T23:55:05.802Z,98894.75
2022-09-16T23:57:42.547Z,98887.91
